Portada
METAR-TAF:

METAR-TAF

Aeroports :

Richard B. Helgeson Airport

Two Harbors, Minnesota, Estats Units d'Amèrica

latitud: 47-03N, longitud: 091-45W, altitud: 328 m

Observació

L'informe es va fer fa 9 minuts, a les 17:15 UTC
Vent 7 kt del Sud/Sud-Est
Temperatura 18°C
Humitat 37%
Pressió 1025 hPa
Visibilitat: 16.1 km
Cel clar

METAR: KTWM 201715Z AUTO 16007KT 10SM CLR 18/03 A3026 RMK AO2

Hora: 12:24 (17:24 UTC)


TAF: manca

Observacions i pronòstics meteorològics de més de 4000 aeroports (METAR i TAF).

Les estacions disponibles són els punts grocs i vermells al mapa.

Posi el ratolí al punt desitjat per veure el nom de l'estació.

Feu clic per veure les observacions i els pronòstics meteorològics.

Per canviar el mapa: feu clic els botons verds amb una creu de color negre per apropar; al botó verd amb un guió per allunyar la imatge; o en les fletxes verdes per a mapes adjacents.


METAR-TAF: